createdAt,value
2019-05-03T00:02:38.579Z,24.73
2019-05-03T00:05:32.830Z,24.50
2019-05-03T00:08:07.549Z,25.60
2019-05-03T00:10:42.375Z,22.93
2019-05-03T00:13:13.366Z,22.30
2019-05-03T00:16:04.390Z,23.93
2019-05-03T00:18:36.360Z,22.37
2019-05-03T00:21:08.309Z,21.80
2019-05-03T00:23:41.645Z,23.67
2019-05-03T00:26:13.309Z,26.60
2019-05-03T00:28:44.870Z,23.07
2019-05-03T00:31:16.679Z,21.53
2019-05-03T00:33:51.666Z,24.40
2019-05-03T00:36:33.798Z,24.53
2019-05-03T00:39:29.111Z,29.03
2019-05-03T00:42:02.388Z,24.33
2019-05-03T00:44:34.630Z,26.47
2019-05-03T00:47:09.070Z,23.90
2019-05-03T00:49:42.531Z,24.90
2019-05-03T00:52:14.158Z,25.00
2019-05-03T00:54:45.559Z,25.40
2019-05-03T00:57:17.308Z,27.50
2019-05-03T00:59:49.268Z,29.83
2019-05-03T01:02:22.349Z,26.87
2019-05-03T01:04:54.070Z,27.23
2019-05-03T01:07:25.828Z,28.17
2019-05-03T01:09:57.357Z,30.30
2019-05-03T01:12:29.031Z,28.93
2019-05-03T01:15:03.419Z,28.67
2019-05-03T01:17:36.190Z,31.43
2019-05-03T01:20:08.238Z,31.07
2019-05-03T01:22:39.880Z,28.77
2019-05-03T01:25:12.034Z,29.33
2019-05-03T01:27:43.947Z,28.17
2019-05-03T01:30:16.989Z,26.00
2019-05-03T01:32:48.777Z,27.77
2019-05-03T01:35:21.899Z,26.50
2019-05-03T01:37:53.965Z,26.60
2019-05-03T01:40:25.381Z,28.93
2019-05-03T01:42:56.757Z,25.33
2019-05-03T01:45:28.271Z,27.70
2019-05-03T01:48:12.573Z,25.57
2019-05-03T01:50:56.947Z,23.50
2019-05-03T01:53:29.726Z,28.83
2019-05-03T01:56:03.660Z,26.10
2019-05-03T01:58:35.595Z,27.30
2019-05-03T02:01:15.267Z,26.23
2019-05-03T02:03:54.897Z,24.43
2019-05-03T02:06:27.431Z,27.37
2019-05-03T02:08:59.046Z,27.03
2019-05-03T02:11:32.505Z,25.40
2019-05-03T02:14:04.609Z,27.90
2019-05-03T02:16:36.236Z,25.80
2019-05-03T02:19:07.642Z,23.93
2019-05-03T02:21:38.747Z,24.70
2019-05-03T02:24:11.866Z,23.03
2019-05-03T02:26:44.889Z,23.17
2019-05-03T02:29:16.347Z,22.43
2019-05-03T02:31:48.070Z,25.03
2019-05-03T02:34:19.591Z,24.10
2019-05-03T02:36:53.829Z,26.00
2019-05-03T02:39:25.261Z,23.53
2019-05-03T02:42:05.793Z,26.97
2019-05-03T02:44:32.451Z,23.00
2019-05-03T02:47:21.979Z,23.37
2019-05-03T02:50:05.876Z,26.63
2019-05-03T02:52:38.230Z,22.33
2019-05-03T02:55:15.705Z,23.20
2019-05-03T02:57:46.858Z,24.13
2019-05-03T03:00:21.069Z,23.47
2019-05-03T03:02:52.280Z,22.37
2019-05-03T03:05:25.290Z,21.63
2019-05-03T03:07:57.766Z,22.50
2019-05-03T03:10:29.582Z,23.50
2019-05-03T03:13:05.886Z,22.93
2019-05-03T03:15:40.871Z,19.93
2019-05-03T03:18:15.532Z,22.57
2019-05-03T03:20:48.911Z,22.30
2019-05-03T03:23:21.926Z,24.03
2019-05-03T03:25:55.830Z,22.37
2019-05-03T03:28:28.932Z,23.87
2019-05-03T03:31:32.282Z,25.80
2019-05-03T03:34:08.085Z,24.67
2019-05-03T03:36:59.455Z,21.23
2019-05-03T03:39:21.111Z,21.33
2019-05-03T03:41:55.818Z,24.10
2019-05-03T03:44:28.246Z,19.80
2019-05-03T03:47:02.091Z,21.83
2019-05-03T03:49:36.234Z,21.97
2019-05-03T03:52:12.456Z,22.33
2019-05-03T03:54:45.866Z,23.13
2019-05-03T03:57:19.451Z,21.30
2019-05-03T03:59:51.791Z,24.60
2019-05-03T04:02:26.409Z,21.73
2019-05-03T04:04:59.294Z,22.40
2019-05-03T04:07:35.918Z,22.40
2019-05-03T04:10:09.031Z,23.50
2019-05-03T04:12:45.279Z,23.80
2019-05-03T04:15:50.215Z,23.87
2019-05-03T04:18:36.155Z,26.03
2019-05-03T04:21:08.990Z,26.03
2019-05-03T04:23:41.845Z,24.97
2019-05-03T04:26:16.243Z,24.93
2019-05-03T04:28:48.318Z,24.40
2019-05-03T04:31:25.900Z,23.53
2019-05-03T04:33:56.386Z,24.83
2019-05-03T04:36:27.838Z,23.03
2019-05-03T04:39:00.006Z,23.50
2019-05-03T04:41:31.025Z,24.90
2019-05-03T04:44:06.050Z,21.07
2019-05-03T04:46:37.430Z,23.57
2019-05-03T04:49:09.393Z,20.60
2019-05-03T04:51:41.922Z,20.27
2019-05-03T04:54:28.924Z,19.03
2019-05-03T04:57:00.931Z,20.10
2019-05-03T04:59:35.683Z,18.00
2019-05-03T05:02:07.429Z,17.23
2019-05-03T05:04:39.815Z,16.00
2019-05-03T05:07:11.950Z,15.53
2019-05-03T05:09:45.652Z,14.47
2019-05-03T05:12:18.304Z,14.80
2019-05-03T05:14:50.570Z,13.60
2019-05-03T05:17:35.611Z,13.03
2019-05-03T05:20:22.441Z,12.97
2019-05-03T05:22:54.812Z,13.13
2019-05-03T05:25:28.564Z,11.77
2019-05-03T05:28:06.883Z,10.87
2019-05-03T05:30:38.599Z,11.60
2019-05-03T05:33:22.342Z,11.77
2019-05-03T05:35:54.739Z,10.40
2019-05-03T05:38:27.190Z,11.10
2019-05-03T05:40:58.749Z,10.60
2019-05-03T05:43:29.794Z,10.23
2019-05-03T05:46:01.040Z,9.60
2019-05-03T05:48:37.157Z,10.50
2019-05-03T05:51:10.246Z,10.30
2019-05-03T05:53:41.944Z,10.00
2019-05-03T05:56:34.844Z,10.17
2019-05-03T05:59:16.720Z,9.90
2019-05-03T06:02:04.835Z,10.87
2019-05-03T06:04:37.932Z,10.17
2019-05-03T06:07:31.805Z,11.23
2019-05-03T06:10:20.972Z,10.90
2019-05-03T06:13:11.689Z,10.70
2019-05-03T06:15:52.259Z,11.00
2019-05-03T06:18:45.768Z,11.07
2019-05-03T06:21:25.497Z,11.90
2019-05-03T06:24:09.307Z,11.03
2019-05-03T06:26:48.905Z,11.40
2019-05-03T06:29:20.392Z,11.57
2019-05-03T06:32:15.247Z,12.10
2019-05-03T06:34:46.238Z,12.80
2019-05-03T06:37:18.766Z,13.03
2019-05-03T06:39:50.071Z,13.47
2019-05-03T06:42:25.484Z,12.33
2019-05-03T06:44:59.694Z,12.90
2019-05-03T06:47:30.170Z,12.97
2019-05-03T06:50:01.428Z,14.53
2019-05-03T06:52:32.456Z,13.20
2019-05-03T06:55:08.553Z,13.63
2019-05-03T06:57:40.050Z,13.47
2019-05-03T07:00:37.348Z,12.90
2019-05-03T07:03:25.274Z,13.33
2019-05-03T07:06:15.051Z,12.20
2019-05-03T07:09:17.436Z,12.10
2019-05-03T07:11:48.664Z,12.07
2019-05-03T07:14:20.578Z,11.97
2019-05-03T07:16:55.381Z,12.67
2019-05-03T07:19:30.063Z,12.27
2019-05-03T07:22:01.146Z,13.17
2019-05-03T07:24:37.599Z,12.57
2019-05-03T07:27:05.774Z,12.23
2019-05-03T07:29:37.871Z,12.00
2019-05-03T07:32:10.088Z,12.80
2019-05-03T07:34:42.383Z,12.73
2019-05-03T07:37:14.889Z,12.60
2019-05-03T07:39:46.958Z,12.93
2019-05-03T07:42:19.472Z,11.87
2019-05-03T07:44:52.214Z,12.23
2019-05-03T07:47:24.778Z,12.27
2019-05-03T07:49:56.637Z,11.97
2019-05-03T07:52:28.318Z,11.53
2019-05-03T07:54:59.980Z,11.10
2019-05-03T07:57:50.454Z,12.33
2019-05-03T08:00:25.460Z,11.27
2019-05-03T08:02:57.754Z,11.47
2019-05-03T08:05:30.351Z,11.00
2019-05-03T08:08:01.759Z,11.97
2019-05-03T08:10:34.642Z,12.07
2019-05-03T08:13:07.021Z,12.20
2019-05-03T08:15:38.419Z,12.00
2019-05-03T08:18:10.417Z,12.57
2019-05-03T08:20:42.119Z,11.27
2019-05-03T08:23:26.728Z,12.10
2019-05-03T08:25:50.799Z,12.27
2019-05-03T08:28:22.089Z,11.73
2019-05-03T08:31:23.980Z,12.40
2019-05-03T08:34:25.855Z,13.17
2019-05-03T08:37:08.861Z,11.83
2019-05-03T08:39:40.285Z,12.23
2019-05-03T08:42:16.962Z,13.13
2019-05-03T08:44:48.790Z,12.40
2019-05-03T08:47:20.432Z,11.73
2019-05-03T08:49:52.422Z,12.30
2019-05-03T08:52:25.704Z,13.30
2019-05-03T08:54:57.372Z,11.73
2019-05-03T08:57:28.250Z,12.33
2019-05-03T08:59:59.364Z,12.97
2019-05-03T09:02:30.938Z,13.60
2019-05-03T09:05:02.571Z,13.03
2019-05-03T09:07:35.513Z,14.23
2019-05-03T09:10:30.980Z,14.07
2019-05-03T09:13:16.650Z,13.67
2019-05-03T09:15:48.603Z,13.80
2019-05-03T09:18:21.838Z,13.10
2019-05-03T09:20:55.410Z,13.50
2019-05-03T09:23:26.198Z,14.77
2019-05-03T09:25:57.553Z,14.67
2019-05-03T09:28:29.338Z,14.27
2019-05-03T09:31:02.147Z,13.43
2019-05-03T09:33:35.530Z,15.17
2019-05-03T09:36:06.218Z,14.30
2019-05-03T09:38:40.478Z,14.53
2019-05-03T09:41:11.753Z,16.53
2019-05-03T09:43:45.027Z,16.77
2019-05-03T09:46:17.365Z,18.60
2019-05-03T09:48:48.553Z,15.40
2019-05-03T09:51:20.691Z,16.83
2019-05-03T09:54:00.490Z,16.10
2019-05-03T09:56:57.518Z,14.90
2019-05-03T09:59:22.903Z,14.77
2019-05-03T10:01:55.602Z,14.80
2019-05-03T10:04:28.254Z,15.10
2019-05-03T10:06:59.913Z,14.50
2019-05-03T10:09:31.625Z,14.30
2019-05-03T10:12:05.491Z,16.90
2019-05-03T10:14:37.298Z,15.00
2019-05-03T10:17:20.071Z,14.40
2019-05-03T10:19:52.034Z,14.90
2019-05-03T10:22:27.993Z,13.97
2019-05-03T10:24:59.808Z,12.50
2019-05-03T10:27:34.688Z,13.00
2019-05-03T10:30:12.529Z,12.83
2019-05-03T10:32:44.948Z,14.23
2019-05-03T10:35:17.529Z,13.33
2019-05-03T10:37:49.173Z,13.90
2019-05-03T10:40:32.144Z,13.60
2019-05-03T10:43:05.168Z,14.80
2019-05-03T10:45:36.781Z,14.17
2019-05-03T10:48:08.445Z,12.60
2019-05-03T10:50:40.443Z,12.87
2019-05-03T10:53:17.709Z,13.90
2019-05-03T10:56:07.572Z,13.13
2019-05-03T10:58:40.412Z,13.70
2019-05-03T11:01:13.240Z,14.70
2019-05-03T11:03:45.523Z,14.40
2019-05-03T11:06:16.753Z,15.07
2019-05-03T11:08:48.674Z,14.20
2019-05-03T11:11:20.389Z,13.73
2019-05-03T11:13:53.001Z,13.30
2019-05-03T11:16:25.483Z,14.17
2019-05-03T11:18:56.882Z,14.20
2019-05-03T11:21:31.070Z,15.40
2019-05-03T11:24:02.502Z,15.87
2019-05-03T11:26:35.722Z,15.33
2019-05-03T11:29:08.353Z,16.20
2019-05-03T11:31:57.268Z,16.03
2019-05-03T11:34:35.464Z,16.93
2019-05-03T11:37:25.167Z,15.60
2019-05-03T11:39:57.242Z,15.30
2019-05-03T11:42:29.140Z,15.80
2019-05-03T11:45:00.813Z,14.63
2019-05-03T11:47:34.782Z,14.60
2019-05-03T11:50:06.543Z,15.07
2019-05-03T11:52:38.365Z,13.73
2019-05-03T11:55:11.687Z,15.87
2019-05-03T11:57:44.982Z,14.80
2019-05-03T12:00:21.511Z,14.70
2019-05-03T12:02:57.862Z,16.07
2019-05-03T12:05:30.260Z,15.37
2019-05-03T12:08:02.020Z,15.53
2019-05-03T12:10:49.749Z,15.13
2019-05-03T12:13:11.719Z,14.50
2019-05-03T12:15:44.756Z,15.83
2019-05-03T12:18:17.226Z,14.37
2019-05-03T12:20:49.724Z,15.77
2019-05-03T12:23:23.215Z,14.60
2019-05-03T12:25:55.784Z,14.50
2019-05-03T12:28:28.428Z,14.97
2019-05-03T12:31:01.365Z,14.20
2019-05-03T12:33:35.404Z,12.50
2019-05-03T12:36:07.077Z,13.23
2019-05-03T12:38:38.766Z,14.00
2019-05-03T12:41:10.291Z,14.37
2019-05-03T12:43:41.189Z,13.20
2019-05-03T12:46:16.662Z,14.40
2019-05-03T12:48:47.425Z,12.33
2019-05-03T12:51:18.799Z,12.63
2019-05-03T12:53:50.392Z,14.57
2019-05-03T12:56:24.711Z,12.93
2019-05-03T12:59:05.586Z,13.40
2019-05-03T13:01:57.759Z,12.97
2019-05-03T13:04:33.776Z,12.53
2019-05-03T13:07:10.936Z,12.47
2019-05-03T13:09:42.427Z,12.77
2019-05-03T13:12:15.884Z,12.60
2019-05-03T13:14:47.346Z,13.60
2019-05-03T13:17:36.227Z,14.07
2019-05-03T13:20:15.114Z,13.60
2019-05-03T13:22:46.761Z,14.50
2019-05-03T13:25:18.562Z,13.47
2019-05-03T13:27:50.551Z,14.07
2019-05-03T13:30:24.966Z,13.63
2019-05-03T13:32:56.462Z,14.23
2019-05-03T13:35:27.853Z,14.80
2019-05-03T13:37:59.514Z,12.93
2019-05-03T13:40:31.091Z,13.03
2019-05-03T13:43:04.473Z,13.53
2019-05-03T13:45:36.181Z,12.33
2019-05-03T13:48:07.376Z,13.43
2019-05-03T13:50:39.282Z,13.30
2019-05-03T13:53:10.516Z,12.60
2019-05-03T13:55:41.827Z,13.60
2019-05-03T13:58:14.723Z,13.80
2019-05-03T14:00:47.377Z,12.73
2019-05-03T14:03:19.045Z,14.30
2019-05-03T14:05:50.504Z,13.93
2019-05-03T14:08:22.226Z,12.90
2019-05-03T14:10:55.676Z,13.23
2019-05-03T14:13:27.458Z,12.97
2019-05-03T14:15:59.379Z,13.87
2019-05-03T14:18:32.007Z,14.87
2019-05-03T14:21:24.490Z,13.73
2019-05-03T14:24:12.356Z,14.13
2019-05-03T14:26:44.965Z,13.53
2019-05-03T14:29:17.264Z,13.93
2019-05-03T14:31:50.027Z,13.73
2019-05-03T14:34:21.588Z,14.73
2019-05-03T14:36:55.290Z,13.30
2019-05-03T14:39:25.987Z,14.43
2019-05-03T14:41:57.868Z,14.63
2019-05-03T14:44:29.902Z,15.07
2019-05-03T14:47:00.941Z,15.30
2019-05-03T14:49:34.504Z,18.03
2019-05-03T14:52:05.631Z,13.57
2019-05-03T14:54:38.746Z,13.73
2019-05-03T14:57:16.802Z,13.33
2019-05-03T15:00:16.829Z,13.50
2019-05-03T15:02:55.404Z,14.27
2019-05-03T15:05:27.055Z,13.40
2019-05-03T15:07:59.359Z,13.23
2019-05-03T15:10:31.466Z,13.60
2019-05-03T15:13:05.053Z,12.80
2019-05-03T15:15:36.625Z,13.90
2019-05-03T15:18:08.306Z,13.63
2019-05-03T15:20:41.310Z,13.10
2019-05-03T15:23:14.693Z,13.13
2019-05-03T15:25:47.074Z,12.77
2019-05-03T15:28:19.414Z,13.27
2019-05-03T15:30:51.034Z,13.30
2019-05-03T15:33:22.712Z,12.70
2019-05-03T15:35:55.263Z,12.57
2019-05-03T15:38:27.066Z,13.00
2019-05-03T15:40:58.584Z,14.80
2019-05-03T15:43:46.506Z,14.00
2019-05-03T15:46:27.656Z,14.53
2019-05-03T15:49:00.953Z,13.50
2019-05-03T15:51:32.267Z,14.70
2019-05-03T15:54:04.582Z,14.73
2019-05-03T15:56:35.666Z,14.20
2019-05-03T15:59:07.228Z,14.47
2019-05-03T16:01:39.035Z,14.93
2019-05-03T16:04:10.351Z,13.83
2019-05-03T16:06:42.019Z,13.67
2019-05-03T16:09:15.107Z,14.20
2019-05-03T16:11:45.975Z,13.43
2019-05-03T16:14:17.786Z,14.23
2019-05-03T16:16:49.656Z,14.53
2019-05-03T16:19:21.587Z,14.73
2019-05-03T16:21:54.906Z,14.73
2019-05-03T16:24:26.587Z,14.10
2019-05-03T16:27:24.820Z,14.40
2019-05-03T16:29:56.476Z,14.40
2019-05-03T16:32:28.265Z,15.33
2019-05-03T16:35:00.193Z,14.03
2019-05-03T16:37:34.425Z,14.00
2019-05-03T16:40:05.874Z,13.90
2019-05-03T16:42:38.153Z,13.07
2019-05-03T16:45:10.848Z,13.30
2019-05-03T16:47:44.847Z,13.17
2019-05-03T16:50:16.713Z,14.43
2019-05-03T16:52:48.514Z,13.70
2019-05-03T16:55:20.862Z,13.97
2019-05-03T16:57:52.496Z,13.07
2019-05-03T17:00:25.011Z,14.30
2019-05-03T17:02:56.866Z,14.10
2019-05-03T17:05:51.054Z,13.80
2019-05-03T17:08:35.609Z,14.53
2019-05-03T17:11:10.353Z,13.63
2019-05-03T17:13:41.438Z,14.70
2019-05-03T17:16:14.555Z,16.27
2019-05-03T17:18:46.561Z,13.50
2019-05-03T17:21:18.675Z,13.37
2019-05-03T17:23:50.799Z,13.30
2019-05-03T17:26:24.882Z,14.50
2019-05-03T17:28:56.667Z,14.10
2019-05-03T17:31:31.681Z,13.27
2019-05-03T17:34:05.394Z,13.30
2019-05-03T17:36:36.844Z,14.00
2019-05-03T17:39:15.003Z,14.00
2019-05-03T17:42:05.261Z,14.30
2019-05-03T17:44:41.141Z,15.30
2019-05-03T17:47:12.715Z,15.87
2019-05-03T17:49:45.195Z,15.37
2019-05-03T17:52:35.117Z,13.03
2019-05-03T17:55:31.467Z,13.70
2019-05-03T17:58:24.197Z,14.47
2019-05-03T18:01:20.733Z,17.00
2019-05-03T18:04:05.679Z,15.23
2019-05-03T18:06:31.841Z,15.10
2019-05-03T18:09:22.448Z,14.23
2019-05-03T18:11:57.956Z,15.30
2019-05-03T18:14:31.489Z,15.30
2019-05-03T18:17:05.547Z,15.80
2019-05-03T18:19:37.077Z,15.13
2019-05-03T18:22:09.303Z,15.77
2019-05-03T18:24:40.837Z,15.83
2019-05-03T18:27:11.955Z,14.60
2019-05-03T18:29:44.959Z,16.10
2019-05-03T18:32:17.556Z,21.33
2019-05-03T18:34:51.277Z,90.03
2019-05-03T18:37:24.902Z,125.70
2019-05-03T18:39:56.932Z,106.87
2019-05-03T18:42:37.807Z,22.83
2019-05-03T18:45:17.057Z,15.60
2019-05-03T18:47:49.525Z,14.47
2019-05-03T18:50:21.649Z,22.47
2019-05-03T18:52:55.327Z,59.80
2019-05-03T18:55:27.115Z,39.50
2019-05-03T18:58:00.248Z,137.60
2019-05-03T19:00:34.995Z,65.53
2019-05-03T19:03:06.955Z,27.80
2019-05-03T19:05:41.454Z,20.50
2019-05-03T19:08:25.567Z,16.67
2019-05-03T19:11:02.075Z,16.73
2019-05-03T19:13:44.843Z,15.07
2019-05-03T19:16:35.287Z,14.97
2019-05-03T19:19:08.967Z,15.93
2019-05-03T19:21:44.438Z,14.60
2019-05-03T19:24:17.465Z,14.80
2019-05-03T19:26:50.117Z,15.27
2019-05-03T19:29:24.986Z,15.37
2019-05-03T19:31:57.331Z,14.90
2019-05-03T19:34:29.555Z,15.47
2019-05-03T19:37:01.557Z,14.33
2019-05-03T19:39:34.596Z,14.53
2019-05-03T19:42:07.049Z,15.00
2019-05-03T19:44:39.187Z,15.17
2019-05-03T19:47:11.788Z,14.53
2019-05-03T19:49:45.431Z,16.07
2019-05-03T19:52:19.458Z,14.30
2019-05-03T19:54:51.931Z,15.23
2019-05-03T19:57:28.788Z,14.80
2019-05-03T20:00:07.026Z,14.40
2019-05-03T20:02:56.853Z,15.53
2019-05-03T20:05:45.968Z,14.43
2019-05-03T20:08:35.476Z,13.90
2019-05-03T20:11:17.419Z,14.57
2019-05-03T20:13:49.081Z,15.30
2019-05-03T20:16:20.846Z,14.20
2019-05-03T20:18:56.815Z,15.40
2019-05-03T20:21:29.607Z,14.30
2019-05-03T20:24:01.808Z,14.20
2019-05-03T20:26:34.776Z,14.47
2019-05-03T20:29:07.246Z,15.20
2019-05-03T20:31:39.217Z,16.20
2019-05-03T20:34:11.655Z,14.57
2019-05-03T20:36:45.228Z,15.40
2019-05-03T20:39:16.289Z,15.63
2019-05-03T20:41:48.235Z,15.87
2019-05-03T20:44:31.968Z,15.67
2019-05-03T20:47:07.288Z,14.40
2019-05-03T20:49:39.880Z,15.07
2019-05-03T20:52:11.962Z,15.33
2019-05-03T20:54:44.782Z,15.57
2019-05-03T20:57:16.307Z,14.20
2019-05-03T20:59:51.652Z,14.60
2019-05-03T21:02:21.296Z,14.40
2019-05-03T21:04:54.669Z,16.40
2019-05-03T21:07:26.242Z,14.43
2019-05-03T21:09:59.366Z,16.40
2019-05-03T21:12:31.502Z,16.23
2019-05-03T21:15:05.154Z,15.30
2019-05-03T21:17:52.886Z,16.37
2019-05-03T21:20:41.814Z,15.23
2019-05-03T21:23:14.740Z,16.47
2019-05-03T21:26:12.615Z,16.07
2019-05-03T21:28:36.963Z,14.40
2019-05-03T21:31:08.888Z,14.67
2019-05-03T21:33:40.311Z,15.70
2019-05-03T21:36:16.206Z,14.17
2019-05-03T21:38:47.553Z,14.43
2019-05-03T21:41:20.248Z,15.17
2019-05-03T21:43:55.586Z,15.73
2019-05-03T21:46:39.561Z,14.80
2019-05-03T21:49:25.596Z,15.43
2019-05-03T21:51:56.726Z,15.00
2019-05-03T21:54:28.566Z,16.30
2019-05-03T21:57:00.041Z,16.10
2019-05-03T21:59:32.483Z,16.27
2019-05-03T22:02:05.116Z,16.80
2019-05-03T22:04:36.377Z,16.10
2019-05-03T22:07:08.717Z,15.97
2019-05-03T22:09:40.604Z,16.50
2019-05-03T22:12:14.378Z,16.50
2019-05-03T22:15:05.326Z,16.43
2019-05-03T22:18:04.750Z,17.07
2019-05-03T22:20:42.823Z,17.17
2019-05-03T22:23:22.403Z,17.23
2019-05-03T22:25:56.825Z,17.57
2019-05-03T22:28:27.696Z,18.27
2019-05-03T22:30:59.399Z,17.17
2019-05-03T22:33:34.278Z,16.50
2019-05-03T22:36:08.848Z,16.80
2019-05-03T22:38:38.838Z,17.23
2019-05-03T22:41:10.134Z,17.40
2019-05-03T22:43:42.033Z,16.93
2019-05-03T22:46:15.223Z,16.50
2019-05-03T22:48:47.002Z,17.00
2019-05-03T22:51:18.627Z,16.60
2019-05-03T22:53:51.685Z,16.93
2019-05-03T22:56:24.834Z,16.60
2019-05-03T22:58:57.367Z,17.90
2019-05-03T23:01:28.871Z,18.50
2019-05-03T23:04:00.013Z,16.90
2019-05-03T23:06:32.067Z,17.87
2019-05-03T23:09:05.084Z,17.73
2019-05-03T23:11:37.048Z,16.97
2019-05-03T23:14:08.230Z,18.17
2019-05-03T23:16:39.909Z,18.03
2019-05-03T23:19:14.673Z,17.87
2019-05-03T23:21:52.010Z,17.27
2019-05-03T23:24:24.752Z,17.37
2019-05-03T23:26:56.584Z,16.70
2019-05-03T23:29:27.660Z,18.77
2019-05-03T23:31:59.662Z,17.90
2019-05-03T23:34:31.450Z,18.90
2019-05-03T23:37:05.360Z,17.90
2019-05-03T23:39:37.707Z,17.53
2019-05-03T23:42:09.685Z,17.67
2019-05-03T23:44:42.828Z,19.00
2019-05-03T23:47:45.139Z,19.30
2019-05-03T23:50:19.650Z,17.80
2019-05-03T23:52:51.547Z,18.37
2019-05-03T23:55:34.462Z,18.63
2019-05-03T23:58:05.709Z,18.83
